createdAt,value
2023-06-10T00:03:47.874Z,11.23
2023-06-10T00:07:50.757Z,12.77
2023-06-10T00:11:52.253Z,11.73
2023-06-10T00:15:53.712Z,8.57
2023-06-10T00:19:55.211Z,12.18
2023-06-10T00:23:58.064Z,10.15
2023-06-10T00:27:59.626Z,11.00
2023-06-10T00:32:01.230Z,12.77
2023-06-10T00:36:02.921Z,10.32
2023-06-10T00:40:07.104Z,10.30
2023-06-10T00:44:08.608Z,11.18
2023-06-10T00:48:10.820Z,10.82
2023-06-10T00:52:12.725Z,10.55
2023-06-10T00:56:15.642Z,10.85
2023-06-10T01:00:18.099Z,9.77
2023-06-10T01:04:19.552Z,13.07
2023-06-10T01:08:29.423Z,11.90
2023-06-10T01:12:40.171Z,13.35
2023-06-10T01:16:41.752Z,15.43
2023-06-10T01:20:44.466Z,11.77
2023-06-10T01:24:47.269Z,13.55
2023-06-10T01:28:52.559Z,14.20
2023-06-10T01:32:54.857Z,14.40
2023-06-10T01:36:59.147Z,14.15
2023-06-10T01:41:02.595Z,14.75
2023-06-10T01:45:05.101Z,18.55
2023-06-10T01:49:06.541Z,15.90
2023-06-10T01:53:07.989Z,12.25
2023-06-10T01:57:10.903Z,13.63
2023-06-10T02:01:12.519Z,16.90
2023-06-10T02:05:14.037Z,16.63
2023-06-10T02:09:15.618Z,14.25
2023-06-10T02:13:18.419Z,14.30
2023-06-10T02:17:19.948Z,20.58
2023-06-10T02:21:21.484Z,17.55
2023-06-10T02:25:22.932Z,14.65
2023-06-10T02:29:25.713Z,13.60
2023-06-10T02:33:27.277Z,15.23
2023-06-10T02:37:28.742Z,15.35
2023-06-10T02:41:30.192Z,15.07
2023-06-10T02:45:32.989Z,15.63
2023-06-10T02:49:34.463Z,14.77
2023-06-10T02:53:35.904Z,16.20
2023-06-10T02:57:37.361Z,14.98
2023-06-10T03:01:40.197Z,14.13
2023-06-10T03:05:41.644Z,16.42
2023-06-10T03:09:45.513Z,13.95
2023-06-10T03:13:47.385Z,18.67
2023-06-10T03:17:50.195Z,17.13
2023-06-10T03:22:09.982Z,17.40
2023-06-10T03:26:12.097Z,13.48
2023-06-10T03:30:14.022Z,14.82
2023-06-10T03:34:16.798Z,17.58
2023-06-10T03:38:18.269Z,14.60
2023-06-10T03:42:19.718Z,16.52
2023-06-10T03:46:21.209Z,14.82
2023-06-10T03:50:24.060Z,13.27
2023-06-10T03:54:25.540Z,15.98
2023-06-10T03:58:26.996Z,15.57
2023-06-10T04:02:28.511Z,17.73
2023-06-10T04:06:31.349Z,18.88
2023-06-10T04:10:32.785Z,17.13
2023-06-10T04:14:34.242Z,19.08
2023-06-10T04:18:35.679Z,16.88
2023-06-10T04:22:38.458Z,18.13
2023-06-10T04:26:39.942Z,19.98
2023-06-10T04:30:41.465Z,17.08
2023-06-10T04:34:42.901Z,18.02
2023-06-10T04:38:45.703Z,21.58
2023-06-10T04:42:47.184Z,18.10
2023-06-10T04:46:48.953Z,20.92
2023-06-10T04:50:50.573Z,18.15
2023-06-10T04:54:53.421Z,20.95
2023-06-10T04:58:54.877Z,20.15
2023-06-10T05:02:56.386Z,18.25
2023-06-10T05:06:57.953Z,17.48
2023-06-10T05:11:00.729Z,17.30
2023-06-10T05:15:02.202Z,16.23
2023-06-10T05:19:05.632Z,22.05
2023-06-10T05:23:09.480Z,15.82
2023-06-10T05:27:12.248Z,18.40
2023-06-10T05:31:13.723Z,19.05
2023-06-10T05:35:15.286Z,14.43
2023-06-10T05:39:16.741Z,13.80
2023-06-10T05:43:19.504Z,13.45
2023-06-10T05:47:21.062Z,15.77
2023-06-10T05:51:22.533Z,15.23
2023-06-10T05:55:24.021Z,15.43
2023-06-10T05:59:26.814Z,14.70
2023-06-10T06:03:28.283Z,14.75
2023-06-10T06:07:30.615Z,14.77
2023-06-10T06:11:32.114Z,14.50
2023-06-10T06:15:34.870Z,14.57
2023-06-10T06:19:36.504Z,11.73
2023-06-10T06:23:37.998Z,11.25
2023-06-10T06:27:39.792Z,10.93
2023-06-10T06:31:42.624Z,11.13
2023-06-10T06:35:44.144Z,12.05
2023-06-10T06:39:45.796Z,11.10
2023-06-10T06:43:47.299Z,11.23
2023-06-10T06:47:50.156Z,10.25
2023-06-10T06:51:51.656Z,11.20
2023-06-10T06:55:53.118Z,11.23
2023-06-10T06:59:54.554Z,9.85
2023-06-10T07:03:57.305Z,9.40
2023-06-10T07:07:58.803Z,9.00
2023-06-10T07:12:00.501Z,10.32
2023-06-10T07:16:02.226Z,9.27
2023-06-10T07:20:05.894Z,8.82
2023-06-10T07:24:07.723Z,9.60
2023-06-10T07:28:09.520Z,8.88
2023-06-10T07:32:11.017Z,9.20
2023-06-10T07:36:13.827Z,9.13
2023-06-10T07:40:15.303Z,8.77
2023-06-10T07:44:16.798Z,9.93
2023-06-10T07:48:18.405Z,11.05
2023-06-10T07:52:21.383Z,7.90
2023-06-10T07:56:23.016Z,7.78
2023-06-10T08:00:24.819Z,7.95
2023-06-10T08:04:26.435Z,8.90
2023-06-10T08:08:29.257Z,9.38
2023-06-10T08:12:30.895Z,9.57
2023-06-10T08:16:32.376Z,7.70
2023-06-10T08:20:33.865Z,8.90
2023-06-10T08:24:36.771Z,8.45
2023-06-10T08:28:38.495Z,7.90
2023-06-10T08:32:40.143Z,9.40
2023-06-10T08:36:41.656Z,8.27
2023-06-10T08:40:44.554Z,9.50
2023-06-10T08:44:47.552Z,9.02
2023-06-10T08:48:53.402Z,7.65
2023-06-10T08:52:58.175Z,8.80
2023-06-10T09:01:03.573Z,8.40
2023-06-10T09:05:06.100Z,9.27
2023-06-10T09:09:08.131Z,7.63
2023-06-10T09:13:11.130Z,7.55
2023-06-10T09:17:12.749Z,7.85
2023-06-10T09:21:14.288Z,6.82
2023-06-10T09:25:15.866Z,8.10
2023-06-10T09:29:18.734Z,7.38
2023-06-10T09:33:20.163Z,8.10
2023-06-10T09:37:22.891Z,7.43
2023-06-10T09:41:33.052Z,5.55
2023-06-10T09:45:35.877Z,7.25
2023-06-10T09:49:38.746Z,7.50
2023-06-10T09:53:40.242Z,5.35
2023-06-10T09:57:41.699Z,6.47
2023-06-10T10:01:44.549Z,7.00
2023-06-10T10:05:46.259Z,7.32
2023-06-10T10:09:47.889Z,8.90
2023-06-10T10:13:50.683Z,8.20
2023-06-10T10:18:01.753Z,8.68
2023-06-10T10:22:09.242Z,6.00
2023-06-10T10:26:11.845Z,7.50
2023-06-10T10:30:15.382Z,6.82
2023-06-10T10:34:25.109Z,8.10
2023-06-10T10:38:27.167Z,8.77
2023-06-10T10:42:29.258Z,7.63
2023-06-10T10:46:31.087Z,8.95
2023-06-10T10:50:33.867Z,9.50
2023-06-10T10:54:36.611Z,10.35
2023-06-10T10:58:38.124Z,7.93
2023-06-10T11:02:42.862Z,6.90
2023-06-10T11:06:54.767Z,6.68
2023-06-10T11:10:56.302Z,7.07
2023-06-10T11:14:57.930Z,7.25
2023-06-10T11:18:59.379Z,7.60
2023-06-10T11:23:03.310Z,7.43
2023-06-10T11:27:16.499Z,6.97
2023-06-10T11:31:20.646Z,6.78
2023-06-10T11:35:24.669Z,7.22
2023-06-10T11:39:27.508Z,5.82
2023-06-10T11:43:30.863Z,5.78
2023-06-10T11:47:32.402Z,7.10
2023-06-10T11:51:36.066Z,6.80
2023-06-10T11:55:46.320Z,8.18
2023-06-10T11:59:47.894Z,7.57
2023-06-10T12:03:57.138Z,6.70
2023-06-10T12:08:11.659Z,7.07
2023-06-10T12:12:14.753Z,7.97
2023-06-10T12:16:16.482Z,8.35
2023-06-10T12:20:26.198Z,8.02
2023-06-10T12:24:27.642Z,9.00
2023-06-10T12:28:30.450Z,7.88
2023-06-10T12:32:39.873Z,7.15
2023-06-10T12:36:49.153Z,8.10
2023-06-10T12:40:51.280Z,7.68
2023-06-10T12:44:55.445Z,6.25
2023-06-10T12:48:56.915Z,5.93
2023-06-10T12:52:58.391Z,6.25
2023-06-10T12:56:59.874Z,5.38
2023-06-10T13:01:02.702Z,5.15
2023-06-10T13:05:04.590Z,7.00
2023-06-10T13:09:06.918Z,7.32
2023-06-10T13:13:08.399Z,6.80
2023-06-10T13:17:11.356Z,8.70
2023-06-10T13:21:13.004Z,6.88
2023-06-10T13:25:14.817Z,8.20
2023-06-10T13:29:16.441Z,6.78
2023-06-10T13:33:19.249Z,6.68
2023-06-10T13:37:20.796Z,7.20
2023-06-10T13:41:22.367Z,8.05
2023-06-10T13:45:23.896Z,7.35
2023-06-10T13:49:26.732Z,8.23
2023-06-10T13:53:28.198Z,6.70
2023-06-10T13:57:29.689Z,7.43
2023-06-10T14:01:31.252Z,4.45
2023-06-10T14:05:34.162Z,4.13
2023-06-10T14:09:35.825Z,4.90
2023-06-10T14:13:37.391Z,5.40
2023-06-10T14:17:38.910Z,4.93
2023-06-10T14:21:41.801Z,4.43
2023-06-10T14:25:43.424Z,5.53
2023-06-10T14:29:44.978Z,4.13
2023-06-10T14:33:46.488Z,4.55
2023-06-10T14:37:49.318Z,4.68
2023-06-10T14:41:50.772Z,4.13
2023-06-10T14:45:52.338Z,4.25
2023-06-10T14:49:54.077Z,6.60
2023-06-10T14:53:56.848Z,5.50
2023-06-10T14:57:58.286Z,5.20
2023-06-10T15:01:59.911Z,5.05
2023-06-10T15:06:01.578Z,5.43
2023-06-10T15:10:05.496Z,4.53
2023-06-10T15:18:08.356Z,5.18
2023-06-10T15:22:10.007Z,6.25
2023-06-10T15:26:12.777Z,6.07
2023-06-10T15:30:14.568Z,6.32
2023-06-10T15:34:16.031Z,5.00
2023-06-10T15:38:17.508Z,5.50
2023-06-10T15:42:20.405Z,6.90
2023-06-10T15:46:22.093Z,6.30
2023-06-10T15:50:23.929Z,7.30
2023-06-10T15:54:25.378Z,7.15
2023-06-10T15:58:28.168Z,6.72
2023-06-10T16:02:29.702Z,6.25
2023-06-10T16:06:31.147Z,6.22
2023-06-10T16:10:32.594Z,7.55
2023-06-10T16:14:35.380Z,7.43
2023-06-10T16:18:36.836Z,6.65
2023-06-10T16:22:38.275Z,6.82
2023-06-10T16:26:39.736Z,6.30
2023-06-10T16:30:42.726Z,7.18
2023-06-10T16:34:45.236Z,7.20
2023-06-10T16:38:46.669Z,8.45
2023-06-10T16:42:48.094Z,7.13
2023-06-10T17:04:43.082Z,10.60
2023-06-10T17:08:44.558Z,10.38
2023-06-10T17:12:45.991Z,10.23
2023-06-10T17:16:47.471Z,15.13
2023-06-10T17:20:50.263Z,6.65
2023-06-10T17:24:51.702Z,11.18
2023-06-10T17:28:53.181Z,10.95
2023-06-10T17:32:54.776Z,11.20
2023-06-10T17:36:58.308Z,12.95
2023-06-10T17:40:59.783Z,10.68
2023-06-10T17:45:01.260Z,13.65
2023-06-10T17:49:02.730Z,9.38
2023-06-10T17:53:05.558Z,12.38
2023-06-10T17:57:07.123Z,13.88
2023-06-10T18:01:08.970Z,15.65
2023-06-10T18:05:10.968Z,10.90
2023-06-10T18:09:14.216Z,10.82
2023-06-10T18:13:16.162Z,11.32
2023-06-10T18:17:17.619Z,11.73
2023-06-10T18:21:19.220Z,10.05
2023-06-10T18:25:22.074Z,14.68
2023-06-10T18:29:23.538Z,12.88
2023-06-10T18:33:25.822Z,15.10
2023-06-10T18:37:27.361Z,12.07
2023-06-10T18:41:30.240Z,13.15
2023-06-10T18:45:31.944Z,12.73
2023-06-10T18:49:33.535Z,11.90
2023-06-10T18:53:35.135Z,13.10
2023-06-10T18:57:37.962Z,11.65
2023-06-10T19:01:39.537Z,8.70
2023-06-10T19:05:41.051Z,14.85
2023-06-10T19:09:42.552Z,16.27
2023-06-10T19:13:45.488Z,15.38
2023-06-10T19:17:46.988Z,16.35
2023-06-10T19:21:48.484Z,17.30
2023-06-10T19:25:49.917Z,10.68
2023-06-10T19:29:52.698Z,16.85
2023-06-10T19:33:54.153Z,18.55
2023-06-10T19:37:55.649Z,21.52
2023-06-10T19:41:57.110Z,18.67
2023-06-10T19:45:59.963Z,15.27
2023-06-10T19:50:01.579Z,13.32
2023-06-10T19:54:03.342Z,21.08
2023-06-10T19:58:04.817Z,18.95
2023-06-10T20:02:08.408Z,14.65
2023-06-10T20:06:09.911Z,24.02
2023-06-10T20:10:11.509Z,23.27
2023-06-10T20:14:13.772Z,20.77
2023-06-10T20:18:16.570Z,32.47
2023-06-10T20:22:18.152Z,22.45
2023-06-10T20:26:19.645Z,23.90
2023-06-10T20:30:21.112Z,22.85
2023-06-10T20:34:24.154Z,19.30
2023-06-10T20:38:25.634Z,20.95
2023-06-10T20:42:27.158Z,28.10
2023-06-10T20:46:28.767Z,18.98
2023-06-10T20:50:31.572Z,15.90
2023-06-10T20:54:33.039Z,20.75
2023-06-10T20:58:34.536Z,19.63
2023-06-10T21:02:36.045Z,19.10
2023-06-10T21:06:38.903Z,20.38
2023-06-10T21:10:40.451Z,16.08
2023-06-10T21:14:41.902Z,20.67
2023-06-10T21:18:43.417Z,13.43
2023-06-10T21:22:46.181Z,17.23
2023-06-10T21:26:47.649Z,21.02
2023-06-10T21:30:49.989Z,16.67
2023-06-10T21:34:51.440Z,26.52
2023-06-10T21:38:54.213Z,18.38
2023-06-10T21:42:55.647Z,24.45
2023-06-10T21:46:57.079Z,18.30
2023-06-10T21:50:58.785Z,23.63
2023-06-10T21:55:01.802Z,15.80
2023-06-10T21:59:03.515Z,17.58
2023-06-10T22:03:05.190Z,21.50
2023-06-10T22:07:06.835Z,20.02
2023-06-10T22:11:09.676Z,16.48
2023-06-10T22:15:12.329Z,16.38
2023-06-10T22:19:13.996Z,16.30
2023-06-10T22:23:19.380Z,17.27
2023-06-10T22:27:22.225Z,16.30
2023-06-10T22:31:23.802Z,19.25
2023-06-10T22:35:25.252Z,21.40
2023-06-10T22:39:26.683Z,15.35
2023-06-10T22:43:29.443Z,16.45
2023-06-10T22:47:30.940Z,14.95
2023-06-10T22:51:32.913Z,14.05
2023-06-10T22:55:34.352Z,18.42
2023-06-10T22:59:37.130Z,15.15
2023-06-10T23:03:38.629Z,14.38
2023-06-10T23:07:40.096Z,22.90
2023-06-10T23:11:41.558Z,15.32
2023-06-10T23:15:44.420Z,15.63
2023-06-10T23:19:45.889Z,8.45
2023-06-10T23:23:47.518Z,14.93
2023-06-10T23:27:49.168Z,16.25
2023-06-10T23:31:52.629Z,14.43
2023-06-10T23:35:54.348Z,15.27
2023-06-10T23:39:55.803Z,13.23
2023-06-10T23:43:57.237Z,16.17
2023-06-10T23:48:00.359Z,16.05
2023-06-10T23:52:01.915Z,15.50
2023-06-10T23:56:03.380Z,14.70
